createdAt,value
2018-09-08T00:00:09.608Z,15.00
2018-09-08T00:02:37.997Z,14.70
2018-09-08T00:05:06.316Z,14.60
2018-09-08T00:07:36.547Z,14.60
2018-09-08T00:10:05.904Z,14.70
2018-09-08T00:12:34.656Z,14.80
2018-09-08T00:15:08.537Z,14.70
2018-09-08T00:17:42.345Z,14.70
2018-09-08T00:20:15.992Z,14.80
2018-09-08T00:22:49.676Z,15.10
2018-09-08T00:25:23.148Z,15.40
2018-09-08T00:27:56.563Z,15.50
2018-09-08T00:30:24.855Z,15.60
2018-09-08T00:32:53.165Z,15.50
2018-09-08T00:35:21.455Z,15.50
2018-09-08T00:37:49.772Z,15.50
2018-09-08T00:40:18.060Z,15.30
2018-09-08T00:42:47.519Z,15.30
2018-09-08T00:45:15.881Z,15.50
2018-09-08T00:47:44.195Z,15.60
2018-09-08T00:50:12.494Z,15.40
2018-09-08T00:52:41.068Z,15.30
2018-09-08T00:55:09.359Z,15.10
2018-09-08T00:57:37.692Z,15.10
2018-09-08T01:00:06.001Z,14.90
2018-09-08T01:02:34.296Z,14.80
2018-09-08T01:05:02.615Z,14.60
2018-09-08T01:07:31.721Z,14.50
2018-09-08T01:10:02.086Z,14.50
2018-09-08T01:12:31.180Z,14.60
2018-09-08T01:14:59.892Z,14.50
2018-09-08T01:17:28.183Z,14.50
2018-09-08T01:19:56.495Z,14.50
2018-09-08T01:22:24.810Z,14.40
2018-09-08T01:24:53.157Z,14.30
2018-09-08T01:27:21.460Z,14.20
2018-09-08T01:29:49.771Z,14.20
2018-09-08T01:32:18.073Z,14.00
2018-09-08T01:34:46.388Z,14.00
2018-09-08T01:37:14.679Z,14.00
2018-09-08T01:39:42.996Z,14.10
2018-09-08T01:42:11.298Z,14.10
2018-09-08T01:44:39.650Z,14.00
2018-09-08T01:47:07.952Z,13.90
2018-09-08T01:49:36.293Z,13.70
2018-09-08T01:52:04.591Z,13.80
2018-09-08T01:54:32.912Z,13.70
2018-09-08T01:57:01.237Z,13.80
2018-09-08T01:59:29.584Z,14.00
2018-09-08T02:01:57.883Z,14.20
2018-09-08T02:04:26.205Z,14.30
2018-09-08T02:06:54.504Z,14.30
2018-09-08T02:09:22.841Z,14.30
2018-09-08T02:11:51.202Z,14.70
2018-09-08T02:14:19.526Z,14.70
2018-09-08T02:16:47.826Z,14.70
2018-09-08T02:19:16.151Z,14.50
2018-09-08T02:21:44.443Z,14.20
2018-09-08T02:24:12.756Z,13.80
2018-09-08T02:26:41.048Z,13.60
2018-09-08T02:29:09.364Z,13.50
2018-09-08T02:31:37.672Z,13.40
2018-09-08T02:34:05.983Z,13.40
2018-09-08T02:36:34.284Z,13.40
2018-09-08T02:39:02.604Z,13.40
2018-09-08T02:41:30.908Z,13.40
2018-09-08T02:43:59.224Z,13.40
2018-09-08T02:46:27.528Z,13.50
2018-09-08T02:48:55.843Z,13.50
2018-09-08T02:51:23.139Z,13.40
2018-09-08T02:53:50.459Z,13.20
2018-09-08T02:56:17.764Z,13.10
2018-09-08T02:58:45.092Z,13.10
2018-09-08T03:01:12.389Z,13.10
2018-09-08T03:03:39.715Z,13.20
2018-09-08T03:06:07.020Z,13.20
2018-09-08T03:08:34.320Z,13.10
2018-09-08T03:11:01.645Z,13.10
2018-09-08T03:13:28.951Z,13.20
2018-09-08T03:15:56.280Z,13.40
2018-09-08T03:18:23.588Z,13.30
2018-09-08T03:20:50.903Z,13.40
2018-09-08T03:23:18.204Z,13.40
2018-09-08T03:25:45.520Z,13.40
2018-09-08T03:28:12.820Z,13.50
2018-09-08T03:30:40.135Z,13.50
2018-09-08T03:33:07.437Z,13.50
2018-09-08T03:35:34.853Z,13.50
2018-09-08T03:38:02.158Z,13.50
2018-09-08T03:40:29.472Z,13.60
2018-09-08T03:42:56.777Z,13.30
2018-09-08T03:45:24.092Z,13.20
2018-09-08T03:47:51.388Z,13.00
2018-09-08T03:50:18.712Z,12.90
2018-09-08T03:52:46.016Z,12.80
2018-09-08T03:55:13.335Z,13.00
2018-09-08T03:57:40.644Z,13.10
2018-09-08T04:00:07.975Z,13.10
2018-09-08T04:02:36.275Z,13.00
2018-09-08T04:05:04.603Z,12.90
2018-09-08T04:07:32.897Z,12.80
2018-09-08T04:10:01.232Z,12.80
2018-09-08T04:12:29.533Z,12.80
2018-09-08T04:14:57.871Z,12.80
2018-09-08T04:17:26.173Z,12.80
2018-09-08T04:19:54.491Z,12.80
2018-09-08T04:22:27.231Z,12.80
2018-09-08T04:24:55.552Z,12.90
2018-09-08T04:27:23.844Z,12.80
2018-09-08T04:29:52.165Z,12.90
2018-09-08T04:32:20.468Z,12.80
2018-09-08T04:34:48.792Z,12.90
2018-09-08T04:37:17.084Z,12.90
2018-09-08T04:39:45.416Z,12.90
2018-09-08T04:42:13.732Z,13.00
2018-09-08T04:44:42.057Z,13.20
2018-09-08T04:47:10.351Z,13.30
2018-09-08T04:49:38.692Z,13.40
2018-09-08T04:52:07.000Z,13.50
2018-09-08T04:54:35.312Z,13.50
2018-09-08T04:57:03.731Z,13.50
2018-09-08T04:59:32.053Z,13.60
2018-09-08T05:02:00.357Z,13.70
2018-09-08T05:04:28.656Z,13.60
2018-09-08T05:06:56.969Z,13.40
2018-09-08T05:09:25.284Z,13.30
2018-09-08T05:11:53.603Z,13.10
2018-09-08T05:14:21.913Z,12.90
2018-09-08T05:16:50.233Z,12.70
2018-09-08T05:19:18.529Z,12.60
2018-09-08T05:21:46.844Z,12.60
2018-09-08T05:24:15.136Z,12.60
2018-09-08T05:26:43.512Z,12.60
2018-09-08T05:29:11.811Z,12.60
2018-09-08T05:31:40.129Z,12.60
2018-09-08T05:34:08.475Z,12.60
2018-09-08T05:36:36.792Z,12.60
2018-09-08T05:39:06.230Z,12.50
2018-09-08T05:41:34.544Z,12.50
2018-09-08T05:44:02.884Z,12.60
2018-09-08T05:46:31.219Z,12.60
2018-09-08T05:48:59.632Z,12.70
2018-09-08T05:51:27.904Z,12.60
2018-09-08T05:53:56.296Z,12.60
2018-09-08T05:56:24.608Z,12.70
2018-09-08T05:58:52.928Z,12.60
2018-09-08T06:01:21.248Z,12.70
2018-09-08T06:03:49.548Z,12.70
2018-09-08T06:06:17.868Z,12.70
2018-09-08T06:08:46.193Z,12.70
2018-09-08T06:11:14.511Z,12.70
2018-09-08T06:13:42.807Z,12.80
2018-09-08T06:16:11.147Z,12.80
2018-09-08T06:18:39.536Z,12.80
2018-09-08T06:21:07.854Z,12.90
2018-09-08T06:23:36.148Z,12.90
2018-09-08T06:26:04.564Z,13.00
2018-09-08T06:28:32.916Z,13.00
2018-09-08T06:31:01.220Z,13.00
2018-09-08T06:33:29.550Z,13.20
2018-09-08T06:35:57.871Z,13.30
2018-09-08T06:38:26.168Z,13.20
2018-09-08T06:40:54.494Z,13.20
2018-09-08T06:43:22.800Z,13.30
2018-09-08T06:45:51.120Z,13.30
2018-09-08T06:48:19.420Z,13.40
2018-09-08T06:50:47.735Z,13.40
2018-09-08T06:53:16.037Z,13.40
2018-09-08T06:55:44.352Z,13.40
2018-09-08T06:58:12.668Z,13.30
2018-09-08T07:00:40.986Z,13.30
2018-09-08T07:03:09.291Z,13.30
2018-09-08T07:05:37.608Z,13.40
2018-09-08T07:08:06.032Z,13.40
2018-09-08T07:10:34.354Z,13.40
2018-09-08T07:13:02.664Z,13.50
2018-09-08T07:15:30.980Z,13.50
2018-09-08T07:17:59.305Z,13.50
2018-09-08T07:20:27.607Z,13.50
2018-09-08T07:22:55.928Z,13.50
2018-09-08T07:25:24.225Z,13.70
2018-09-08T07:27:52.544Z,13.70
2018-09-08T07:30:20.840Z,13.80
2018-09-08T07:32:49.156Z,13.90
2018-09-08T07:35:17.456Z,14.10
2018-09-08T07:37:45.779Z,14.20
2018-09-08T07:40:14.088Z,14.40
2018-09-08T07:42:42.420Z,14.50
2018-09-08T07:45:10.723Z,14.50
2018-09-08T07:47:39.096Z,14.40
2018-09-08T07:50:07.408Z,14.30
2018-09-08T07:52:35.724Z,14.30
2018-09-08T07:55:04.050Z,14.60
2018-09-08T07:57:32.374Z,14.70
2018-09-08T08:00:00.672Z,14.60
2018-09-08T08:02:28.990Z,14.60
2018-09-08T08:04:57.401Z,14.60
2018-09-08T08:07:25.716Z,14.50
2018-09-08T08:09:54.041Z,14.50
2018-09-08T08:12:22.376Z,14.60
2018-09-08T08:14:50.676Z,14.60
2018-09-08T08:17:18.996Z,14.80
2018-09-08T08:19:47.287Z,14.80
2018-09-08T08:22:15.600Z,14.90
2018-09-08T08:24:43.913Z,15.10
2018-09-08T08:27:12.232Z,15.10
2018-09-08T08:29:40.533Z,15.20
2018-09-08T08:32:08.884Z,15.10
2018-09-08T08:34:37.180Z,15.00
2018-09-08T08:37:05.585Z,15.00
2018-09-08T08:39:33.824Z,15.10
2018-09-08T08:42:02.152Z,15.10
2018-09-08T08:44:30.456Z,15.20
2018-09-08T08:46:58.787Z,15.40
2018-09-08T08:49:27.108Z,15.50
2018-09-08T08:52:06.792Z,15.70
2018-09-08T08:54:54.272Z,15.70
2018-09-08T08:57:22.592Z,15.60
2018-09-08T08:59:50.888Z,15.70
2018-09-08T09:02:19.192Z,15.80
2018-09-08T09:04:47.500Z,15.90
2018-09-08T09:07:16.222Z,16.00
2018-09-08T09:09:44.660Z,15.70
2018-09-08T09:12:12.971Z,15.70
2018-09-08T09:14:41.336Z,15.70
2018-09-08T09:17:09.612Z,15.70
2018-09-08T09:19:49.326Z,15.80
2018-09-08T09:22:29.431Z,15.90
2018-09-08T09:25:02.190Z,16.00
2018-09-08T09:27:32.572Z,16.10
2018-09-08T09:30:01.248Z,16.20
2018-09-08T09:32:29.561Z,16.20
2018-09-08T09:34:57.865Z,16.30
2018-09-08T09:37:26.222Z,16.40
2018-09-08T09:39:55.523Z,16.30
2018-09-08T09:42:23.844Z,16.40
2018-09-08T09:44:52.181Z,16.40
2018-09-08T09:47:20.604Z,16.30
2018-09-08T09:49:48.991Z,16.30
2018-09-08T09:52:17.317Z,16.40
2018-09-08T09:54:45.714Z,16.50
2018-09-08T09:57:14.028Z,16.70
2018-09-08T09:59:42.324Z,16.80
2018-09-08T10:02:45.374Z,16.70
2018-09-08T10:05:16.307Z,16.60
2018-09-08T10:07:44.679Z,16.50
2018-09-08T10:10:16.180Z,16.50
2018-09-08T10:12:44.492Z,16.50
2018-09-08T10:15:13.073Z,16.50
2018-09-08T10:17:42.207Z,16.70
2018-09-08T10:20:12.700Z,16.80
2018-09-08T10:22:41.019Z,16.80
2018-09-08T10:25:11.432Z,16.80
2018-09-08T10:27:39.789Z,16.90
2018-09-08T10:30:08.924Z,16.90
2018-09-08T10:32:37.248Z,16.70
2018-09-08T10:35:05.623Z,16.80
2018-09-08T10:37:33.945Z,16.90
2018-09-08T10:40:02.255Z,16.90
2018-09-08T10:42:30.581Z,16.90
2018-09-08T10:44:58.934Z,16.70
2018-09-08T10:47:27.268Z,16.80
2018-09-08T10:49:55.866Z,16.80
2018-09-08T10:52:32.564Z,16.90
2018-09-08T10:55:00.968Z,17.10
2018-09-08T10:57:29.284Z,17.10
2018-09-08T10:59:57.928Z,17.30
2018-09-08T11:02:26.424Z,17.30
2018-09-08T11:04:54.568Z,17.50
2018-09-08T11:07:22.903Z,17.60
2018-09-08T11:09:51.213Z,17.80
2018-09-08T11:12:19.509Z,17.70
2018-09-08T11:14:47.832Z,17.70
2018-09-08T11:17:16.133Z,17.80
2018-09-08T11:19:44.460Z,17.80
2018-09-08T11:22:12.922Z,17.90
2018-09-08T11:24:41.245Z,17.90
2018-09-08T11:27:09.553Z,17.70
2018-09-08T11:29:37.973Z,17.80
2018-09-08T11:32:06.419Z,17.70
2018-09-08T11:34:35.031Z,17.80
2018-09-08T11:37:03.325Z,17.80
2018-09-08T11:39:31.645Z,17.70
2018-09-08T11:41:59.941Z,17.80
2018-09-08T11:44:28.262Z,17.80
2018-09-08T11:46:56.568Z,18.10
2018-09-08T11:49:24.926Z,18.20
2018-09-08T11:51:53.222Z,18.10
2018-09-08T11:54:21.540Z,18.10
2018-09-08T11:56:49.836Z,17.90
2018-09-08T11:59:18.147Z,18.00
2018-09-08T12:01:46.476Z,18.00
2018-09-08T12:04:14.880Z,18.10
2018-09-08T12:06:43.174Z,18.10
2018-09-08T12:09:12.504Z,18.10
2018-09-08T12:11:40.836Z,18.20
2018-09-08T12:14:10.524Z,18.30
2018-09-08T12:16:38.821Z,18.50
2018-09-08T12:19:07.213Z,18.50
2018-09-08T12:21:35.493Z,18.50
2018-09-08T12:24:03.836Z,18.50
2018-09-08T12:26:32.123Z,18.70
2018-09-08T12:29:00.436Z,18.70
2018-09-08T12:31:28.792Z,18.60
2018-09-08T12:33:57.112Z,18.70
2018-09-08T12:36:25.416Z,18.70
2018-09-08T12:38:53.786Z,18.80
2018-09-08T12:41:22.049Z,18.90
2018-09-08T12:43:50.371Z,18.80
2018-09-08T12:46:18.667Z,18.80
2018-09-08T12:48:46.972Z,18.80
2018-09-08T12:51:15.448Z,18.80
2018-09-08T12:53:43.756Z,18.90
2018-09-08T12:56:12.061Z,19.00
2018-09-08T12:58:40.381Z,19.20
2018-09-08T13:01:08.668Z,19.20
2018-09-08T13:03:36.980Z,19.20
2018-09-08T13:06:05.323Z,19.20
2018-09-08T13:08:33.661Z,19.20
2018-09-08T13:11:01.967Z,19.40
2018-09-08T13:13:30.380Z,19.30
2018-09-08T13:15:58.704Z,19.40
2018-09-08T13:18:27.105Z,19.50
2018-09-08T13:20:55.399Z,19.40
2018-09-08T13:23:23.688Z,19.20
2018-09-08T13:25:51.999Z,19.20
2018-09-08T13:28:20.300Z,19.30
2018-09-08T13:30:48.613Z,19.50
2018-09-08T13:33:16.904Z,19.50
2018-09-08T13:35:45.225Z,19.60
2018-09-08T13:38:13.528Z,19.70
2018-09-08T13:40:41.839Z,19.90
2018-09-08T13:43:10.132Z,19.90
2018-09-08T13:45:38.471Z,20.00
2018-09-08T13:48:06.765Z,19.90
2018-09-08T13:50:35.075Z,20.00
2018-09-08T13:53:03.360Z,20.20
2018-09-08T13:55:31.668Z,20.20
2018-09-08T13:57:59.970Z,20.30
2018-09-08T14:00:28.284Z,20.20
2018-09-08T14:02:56.580Z,20.20
2018-09-08T14:05:24.892Z,20.00
2018-09-08T14:07:55.281Z,20.10
2018-09-08T14:10:23.620Z,20.00
2018-09-08T14:12:51.979Z,20.00
2018-09-08T14:15:20.325Z,20.00
2018-09-08T14:17:48.622Z,20.10
2018-09-08T14:20:16.937Z,20.00
2018-09-08T14:22:45.225Z,20.10
2018-09-08T14:25:13.612Z,20.10
2018-09-08T14:27:41.905Z,20.00
2018-09-08T14:30:10.240Z,20.00
2018-09-08T14:32:38.524Z,20.00
2018-09-08T14:35:06.907Z,20.00
2018-09-08T14:37:35.200Z,20.10
2018-09-08T14:40:03.512Z,20.20
2018-09-08T14:42:31.860Z,20.30
2018-09-08T14:45:00.240Z,20.50
2018-09-08T14:47:28.563Z,20.50
2018-09-08T14:49:56.960Z,20.60
2018-09-08T14:52:25.250Z,20.70
2018-09-08T14:54:53.916Z,20.80
2018-09-08T14:57:22.214Z,20.70
2018-09-08T14:59:50.528Z,20.60
2018-09-08T15:02:18.844Z,20.50
2018-09-08T15:04:47.277Z,20.30
2018-09-08T15:07:15.504Z,20.20
2018-09-08T15:09:43.836Z,20.10
2018-09-08T15:12:12.131Z,20.20
2018-09-08T15:14:40.449Z,20.20
2018-09-08T15:17:09.011Z,20.30
2018-09-08T15:19:37.371Z,20.30
2018-09-08T15:22:05.668Z,20.30
2018-09-08T15:24:34.007Z,20.40
2018-09-08T15:27:02.316Z,20.40
2018-09-08T15:29:30.657Z,20.40
2018-09-08T15:31:58.961Z,20.30
2018-09-08T15:34:27.289Z,20.20
2018-09-08T15:36:55.587Z,20.20
2018-09-08T15:39:23.892Z,20.10
2018-09-08T15:41:52.199Z,20.20
2018-09-08T15:44:20.496Z,20.20
2018-09-08T15:46:48.800Z,20.20
2018-09-08T15:49:17.088Z,20.30
2018-09-08T15:51:45.405Z,20.30
2018-09-08T15:54:13.871Z,20.30
2018-09-08T15:56:42.264Z,20.30
2018-09-08T15:59:10.557Z,20.40
2018-09-08T16:01:38.867Z,20.70
2018-09-08T16:04:07.169Z,20.80
2018-09-08T16:06:35.480Z,21.00
2018-09-08T16:09:04.421Z,21.30
2018-09-08T16:11:32.791Z,21.60
2018-09-08T16:14:01.091Z,21.60
2018-09-08T16:16:29.403Z,21.90
2018-09-08T16:18:57.760Z,22.10
2018-09-08T16:21:26.087Z,22.20
2018-09-08T16:23:54.384Z,22.20
2018-09-08T16:26:22.688Z,22.00
2018-09-08T16:28:51.282Z,21.80
2018-09-08T16:31:19.596Z,21.40
2018-09-08T16:33:47.926Z,20.90
2018-09-08T16:36:16.238Z,20.50
2018-09-08T16:38:44.542Z,20.20
2018-09-08T16:41:12.972Z,20.00
2018-09-08T16:43:41.277Z,19.70
2018-09-08T16:46:09.597Z,19.50
2018-09-08T16:48:37.914Z,19.30
2018-09-08T16:51:06.228Z,19.10
2018-09-08T16:53:34.524Z,18.90
2018-09-08T16:56:02.848Z,18.70
2018-09-08T16:58:31.144Z,18.60
2018-09-08T17:00:59.477Z,18.40
2018-09-08T17:03:27.767Z,18.30
2018-09-08T17:05:56.093Z,18.20
2018-09-08T17:08:24.409Z,18.10
2018-09-08T17:10:52.720Z,17.90
2018-09-08T17:13:21.016Z,17.80
2018-09-08T17:15:49.323Z,17.80
2018-09-08T17:18:17.612Z,17.70
2018-09-08T17:20:45.932Z,17.60
2018-09-08T17:23:14.223Z,17.60
2018-09-08T17:25:42.540Z,17.50
2018-09-08T17:28:10.844Z,17.40
2018-09-08T17:30:39.180Z,17.30
2018-09-08T17:33:07.471Z,17.20
2018-09-08T17:35:35.761Z,17.20
2018-09-08T17:38:04.216Z,17.20
2018-09-08T17:40:33.212Z,17.20
2018-09-08T17:43:01.527Z,17.00
2018-09-08T17:45:29.876Z,16.90
2018-09-08T17:47:58.199Z,16.80
2018-09-08T17:50:26.501Z,16.70
2018-09-08T17:52:54.829Z,16.60
2018-09-08T17:55:23.127Z,16.60
2018-09-08T17:57:51.575Z,16.70
2018-09-08T18:00:20.008Z,16.70
2018-09-08T18:02:48.340Z,16.70
2018-09-08T18:05:16.636Z,16.70
2018-09-08T18:07:44.944Z,16.70
2018-09-08T18:10:13.260Z,16.70
2018-09-08T18:12:41.578Z,16.70
2018-09-08T18:15:10.347Z,16.70
2018-09-08T18:17:38.879Z,16.70
2018-09-08T18:20:07.324Z,16.70
2018-09-08T18:22:36.276Z,16.70
2018-09-08T18:25:04.807Z,16.80
2018-09-08T18:27:33.120Z,16.70
2018-09-08T18:30:01.446Z,16.70
2018-09-08T18:32:29.753Z,16.70
2018-09-08T18:34:58.051Z,16.70
2018-09-08T18:37:26.446Z,16.50
2018-09-08T18:39:54.785Z,16.30
2018-09-08T18:42:23.108Z,16.10
2018-09-08T18:44:51.400Z,16.00
2018-09-08T18:47:19.712Z,16.20
2018-09-08T18:49:48.004Z,16.30
2018-09-08T18:52:16.324Z,16.30
2018-09-08T18:54:44.623Z,16.40
2018-09-08T18:57:12.937Z,16.40
2018-09-08T18:59:41.232Z,16.50
2018-09-08T19:02:09.548Z,16.50
2018-09-08T19:04:37.856Z,16.50
2018-09-08T19:07:06.252Z,16.50
2018-09-08T19:09:34.569Z,16.50
2018-09-08T19:12:02.888Z,16.30
2018-09-08T19:14:36.552Z,16.20
2018-09-08T19:17:04.916Z,16.10
2018-09-08T19:19:33.212Z,16.20
2018-09-08T19:22:01.540Z,16.30
2018-09-08T19:24:35.294Z,16.30
2018-09-08T19:27:03.613Z,16.40
2018-09-08T19:29:50.633Z,16.10
2018-09-08T19:32:19.936Z,15.50
2018-09-08T19:34:54.117Z,15.10
2018-09-08T19:37:23.688Z,15.10
2018-09-08T19:39:52.024Z,15.30
2018-09-08T19:42:20.340Z,15.60
2018-09-08T19:44:48.640Z,15.50
2018-09-08T19:48:19.877Z,15.40
2018-09-08T19:50:48.211Z,15.20
2018-09-08T19:53:21.928Z,15.20
2018-09-08T19:55:50.571Z,15.20
2018-09-08T19:58:24.238Z,14.70
2018-09-08T20:00:52.627Z,14.80
2018-09-08T20:03:21.045Z,15.00
2018-09-08T20:05:49.344Z,15.20
2018-09-08T20:08:17.693Z,15.10
2018-09-08T20:10:46.002Z,14.80
2018-09-08T20:13:14.332Z,14.60
2018-09-08T20:15:42.637Z,14.30
2018-09-08T20:18:10.963Z,14.00
2018-09-08T20:20:39.256Z,14.10
2018-09-08T20:23:07.575Z,14.30
2018-09-08T20:25:35.886Z,14.70
2018-09-08T20:28:04.204Z,15.00
2018-09-08T20:30:32.497Z,14.90
2018-09-08T20:33:00.919Z,15.00
2018-09-08T20:35:29.212Z,15.10
2018-09-08T20:37:57.601Z,15.30
2018-09-08T20:40:25.892Z,15.60
2018-09-08T20:42:54.228Z,15.70
2018-09-08T20:45:22.519Z,15.90
2018-09-08T20:47:50.900Z,15.90
2018-09-08T20:50:19.181Z,15.70
2018-09-08T20:52:47.501Z,15.50
2018-09-08T20:55:15.808Z,15.40
2018-09-08T20:57:44.122Z,14.90
2018-09-08T21:00:12.708Z,14.80
2018-09-08T21:02:41.016Z,14.60
2018-09-08T21:05:09.320Z,14.40
2018-09-08T21:07:37.652Z,14.30
2018-09-08T21:10:05.971Z,14.50
2018-09-08T21:12:34.296Z,14.60
2018-09-08T21:15:02.600Z,14.70
2018-09-08T21:17:30.928Z,14.90
2018-09-08T21:19:59.227Z,15.20
2018-09-08T21:22:27.596Z,15.20
2018-09-08T21:24:55.924Z,15.10
2018-09-08T21:27:30.912Z,14.90
2018-09-08T21:29:59.212Z,14.50
2018-09-08T21:32:27.528Z,14.50
2018-09-08T21:34:55.835Z,14.70
2018-09-08T21:37:24.155Z,15.00
2018-09-08T21:39:52.649Z,15.20
2018-09-08T21:42:20.983Z,15.60
2018-09-08T21:44:49.284Z,15.70
2018-09-08T21:47:17.600Z,15.80
2018-09-08T21:49:45.929Z,15.90
2018-09-08T21:52:14.252Z,16.00
2018-09-08T21:54:42.576Z,16.00
2018-09-08T21:57:10.872Z,16.10
2018-09-08T21:59:39.208Z,16.10
2018-09-08T22:02:07.504Z,16.00
2018-09-08T22:04:35.833Z,15.80
2018-09-08T22:07:04.148Z,15.40
2018-09-08T22:09:32.558Z,15.10
2018-09-08T22:12:00.844Z,15.10
2018-09-08T22:14:29.160Z,15.10
2018-09-08T22:16:57.451Z,14.90
2018-09-08T22:19:25.772Z,15.10
2018-09-08T22:21:54.083Z,15.20
2018-09-08T22:24:22.403Z,15.30
2018-09-08T22:26:50.691Z,15.40
2018-09-08T22:29:19.012Z,15.40
2018-09-08T22:31:47.319Z,15.20
2018-09-08T22:34:15.637Z,15.20
2018-09-08T22:36:43.936Z,15.20
2018-09-08T22:39:12.252Z,15.20
2018-09-08T22:41:40.540Z,15.20
2018-09-08T22:44:08.847Z,15.00
2018-09-08T22:46:37.148Z,15.10
2018-09-08T22:49:05.880Z,15.20
2018-09-08T22:51:34.180Z,15.30
2018-09-08T22:54:02.492Z,15.40
2018-09-08T22:56:30.789Z,15.50
2018-09-08T22:58:59.106Z,15.60
2018-09-08T23:01:27.732Z,15.60
2018-09-08T23:03:56.045Z,15.40
2018-09-08T23:06:24.339Z,14.90
2018-09-08T23:08:52.663Z,14.30
2018-09-08T23:11:20.966Z,13.80
2018-09-08T23:13:49.287Z,13.50
2018-09-08T23:16:18.608Z,13.50
2018-09-08T23:18:46.922Z,13.70
2018-09-08T23:21:15.223Z,14.00
2018-09-08T23:23:43.557Z,14.00
2018-09-08T23:26:11.849Z,13.90
2018-09-08T23:28:40.177Z,13.80
2018-09-08T23:31:08.475Z,13.60
2018-09-08T23:33:36.792Z,13.60
2018-09-08T23:36:05.097Z,13.90
2018-09-08T23:38:33.411Z,14.20
2018-09-08T23:41:01.718Z,14.40
2018-09-08T23:43:30.176Z,14.50
2018-09-08T23:45:58.477Z,14.20
2018-09-08T23:48:26.787Z,14.30
2018-09-08T23:50:55.143Z,14.40
2018-09-08T23:53:23.484Z,14.30
2018-09-08T23:55:51.873Z,14.00
2018-09-08T23:58:20.178Z,13.50
